sensor_id;sensor_type;location;lat;lon;timestamp;temperature;humidity
1686;DHT22;840;47.980;7.830;2023-02-13T00:01:47;3.40;99.90
1686;DHT22;840;47.980;7.830;2023-02-13T00:04:14;3.30;99.90
1686;DHT22;840;47.980;7.830;2023-02-13T00:06:42;3.30;99.90
1686;DHT22;840;47.980;7.830;2023-02-13T00:09:12;3.30;99.90
1686;DHT22;840;47.980;7.830;2023-02-13T00:11:39;3.30;99.90
1686;DHT22;840;47.980;7.830;2023-02-13T00:14:06;3.20;99.90
1686;DHT22;840;47.980;7.830;2023-02-13T00:16:33;3.20;99.90
1686;DHT22;840;47.980;7.830;2023-02-13T00:19:00;3.20;99.90
1686;DHT22;840;47.980;7.830;2023-02-13T00:21:27;3.20;99.90
1686;DHT22;840;47.980;7.830;2023-02-13T00:23:55;3.20;99.90
1686;DHT22;840;47.980;7.830;2023-02-13T00:26:23;3.20;99.90
1686;DHT22;840;47.980;7.830;2023-02-13T00:28:50;3.20;99.90
1686;DHT22;840;47.980;7.830;2023-02-13T00:31:19;3.20;99.90
1686;DHT22;840;47.980;7.830;2023-02-13T00:33:48;3.10;99.90
1686;DHT22;840;47.980;7.830;2023-02-13T00:36:16;3.10;99.90
1686;DHT22;840;47.980;7.830;2023-02-13T00:38:44;3.10;99.90
1686;DHT22;840;47.980;7.830;2023-02-13T00:41:13;3.00;99.90
1686;DHT22;840;47.980;7.830;2023-02-13T00:43:41;3.00;99.90
1686;DHT22;840;47.980;7.830;2023-02-13T00:46:07;3.00;99.90
1686;DHT22;840;47.980;7.830;2023-02-13T00:48:35;3.00;99.90
1686;DHT22;840;47.980;7.830;2023-02-13T00:51:02;2.90;99.90
1686;DHT22;840;47.980;7.830;2023-02-13T00:53:30;2.90;99.90
1686;DHT22;840;47.980;7.830;2023-02-13T00:55:56;2.90;99.90
1686;DHT22;840;47.980;7.830;2023-02-13T00:58:25;2.90;99.90
1686;DHT22;840;47.980;7.830;2023-02-13T01:00:52;2.80;99.90
1686;DHT22;840;47.980;7.830;2023-02-13T01:03:20;2.80;99.90
1686;DHT22;840;47.980;7.830;2023-02-13T01:05:48;2.80;99.90
1686;DHT22;840;47.980;7.830;2023-02-13T01:08:15;2.80;99.90
1686;DHT22;840;47.980;7.830;2023-02-13T01:10:43;2.80;99.90
1686;DHT22;840;47.980;7.830;2023-02-13T01:13:11;2.80;99.90
1686;DHT22;840;47.980;7.830;2023-02-13T01:15:40;2.80;99.90
1686;DHT22;840;47.980;7.830;2023-02-13T01:18:08;2.80;99.90
1686;DHT22;840;47.980;7.830;2023-02-13T01:20:36;2.80;99.90
1686;DHT22;840;47.980;7.830;2023-02-13T01:23:02;2.80;99.90
1686;DHT22;840;47.980;7.830;2023-02-13T01:25:30;2.80;99.90
1686;DHT22;840;47.980;7.830;2023-02-13T01:27:57;2.80;99.90
1686;DHT22;840;47.980;7.830;2023-02-13T01:30:24;2.80;99.90
1686;DHT22;840;47.980;7.830;2023-02-13T01:32:52;2.80;99.90
1686;DHT22;840;47.980;7.830;2023-02-13T01:35:19;2.80;99.90
1686;DHT22;840;47.980;7.830;2023-02-13T01:37:46;2.70;99.90
1686;DHT22;840;47.980;7.830;2023-02-13T01:40:14;2.70;99.90
1686;DHT22;840;47.980;7.830;2023-02-13T01:42:41;2.60;99.90
1686;DHT22;840;47.980;7.830;2023-02-13T01:45:20;2.60;99.90
1686;DHT22;840;47.980;7.830;2023-02-13T01:47:49;2.60;99.90
1686;DHT22;840;47.980;7.830;2023-02-13T01:50:23;2.60;99.90
1686;DHT22;840;47.980;7.830;2023-02-13T01:52:57;2.60;99.90
1686;DHT22;840;47.980;7.830;2023-02-13T01:55:26;2.60;99.90
1686;DHT22;840;47.980;7.830;2023-02-13T01:57:56;2.60;99.90
1686;DHT22;840;47.980;7.830;2023-02-13T02:00:24;2.60;99.90
1686;DHT22;840;47.980;7.830;2023-02-13T02:03:00;2.60;99.90
1686;DHT22;840;47.980;7.830;2023-02-13T02:05:31;2.60;99.90
1686;DHT22;840;47.980;7.830;2023-02-13T02:08:02;2.60;99.90
1686;DHT22;840;47.980;7.830;2023-02-13T02:10:31;2.60;99.90
1686;DHT22;840;47.980;7.830;2023-02-13T02:13:03;2.60;99.90
1686;DHT22;840;47.980;7.830;2023-02-13T02:15:32;2.60;99.90
1686;DHT22;840;47.980;7.830;2023-02-13T02:17:58;2.60;99.90
1686;DHT22;840;47.980;7.830;2023-02-13T02:20:42;2.60;99.90
1686;DHT22;840;47.980;7.830;2023-02-13T02:23:29;2.60;99.90
1686;DHT22;840;47.980;7.830;2023-02-13T02:29:29;2.60;99.90
1686;DHT22;840;47.980;7.830;2023-02-13T02:32:20;2.60;99.90
1686;DHT22;840;47.980;7.830;2023-02-13T02:34:54;2.60;99.90
1686;DHT22;840;47.980;7.830;2023-02-13T02:37:33;2.60;99.90
1686;DHT22;840;47.980;7.830;2023-02-13T02:40:11;2.60;99.90
1686;DHT22;840;47.980;7.830;2023-02-13T02:42:45;2.60;99.90
1686;DHT22;840;47.980;7.830;2023-02-13T02:45:21;2.60;99.90
1686;DHT22;840;47.980;7.830;2023-02-13T02:47:55;2.60;99.90
1686;DHT22;840;47.980;7.830;2023-02-13T02:50:48;2.60;99.90
1686;DHT22;840;47.980;7.830;2023-02-13T02:53:30;2.50;99.90
1686;DHT22;840;47.980;7.830;2023-02-13T02:56:04;2.60;99.90
1686;DHT22;840;47.980;7.830;2023-02-13T02:58:36;2.60;99.90
1686;DHT22;840;47.980;7.830;2023-02-13T03:01:24;2.50;99.90
1686;DHT22;840;47.980;7.830;2023-02-13T03:04:16;2.50;99.90
1686;DHT22;840;47.980;7.830;2023-02-13T03:07:04;2.40;99.90
1686;DHT22;840;47.980;7.830;2023-02-13T03:09:36;2.40;99.90
1686;DHT22;840;47.980;7.830;2023-02-13T03:12:24;2.40;99.90
1686;DHT22;840;47.980;7.830;2023-02-13T03:15:12;2.40;99.90
1686;DHT22;840;47.980;7.830;2023-02-13T03:17:39;2.40;99.90
1686;DHT22;840;47.980;7.830;2023-02-13T03:20:32;2.40;99.90
1686;DHT22;840;47.980;7.830;2023-02-13T03:23:25;2.40;99.90
1686;DHT22;840;47.980;7.830;2023-02-13T03:26:19;2.30;99.90
1686;DHT22;840;47.980;7.830;2023-02-13T03:29:04;2.30;99.90
1686;DHT22;840;47.980;7.830;2023-02-13T03:31:53;2.30;99.90
1686;DHT22;840;47.980;7.830;2023-02-13T03:34:33;2.20;99.90
1686;DHT22;840;47.980;7.830;2023-02-13T03:37:20;2.20;99.90
1686;DHT22;840;47.980;7.830;2023-02-13T03:40:14;2.20;99.90
1686;DHT22;840;47.980;7.830;2023-02-13T03:42:45;2.20;99.90
1686;DHT22;840;47.980;7.830;2023-02-13T03:45:16;2.20;99.90
1686;DHT22;840;47.980;7.830;2023-02-13T03:48:04;2.10;99.90
1686;DHT22;840;47.980;7.830;2023-02-13T03:50:36;2.10;99.90
1686;DHT22;840;47.980;7.830;2023-02-13T03:53:07;2.10;99.90
1686;DHT22;840;47.980;7.830;2023-02-13T03:55:37;2.10;99.90
1686;DHT22;840;47.980;7.830;2023-02-13T03:58:27;2.10;99.90
1686;DHT22;840;47.980;7.830;2023-02-13T04:01:15;2.10;99.90
1686;DHT22;840;47.980;7.830;2023-02-13T04:03:47;2.10;99.90
1686;DHT22;840;47.980;7.830;2023-02-13T04:06:19;2.10;99.90
1686;DHT22;840;47.980;7.830;2023-02-13T04:08:50;2.10;99.90
1686;DHT22;840;47.980;7.830;2023-02-13T04:11:21;2.10;99.90
1686;DHT22;840;47.980;7.830;2023-02-13T04:13:54;2.10;99.90
1686;DHT22;840;47.980;7.830;2023-02-13T04:16:26;2.10;99.90
1686;DHT22;840;47.980;7.830;2023-02-13T04:18:55;2.10;99.90
1686;DHT22;840;47.980;7.830;2023-02-13T04:21:23;2.00;99.90
1686;DHT22;840;47.980;7.830;2023-02-13T04:23:51;2.00;99.90
1686;DHT22;840;47.980;7.830;2023-02-13T04:26:20;2.00;99.90
1686;DHT22;840;47.980;7.830;2023-02-13T04:28:48;2.00;99.90
1686;DHT22;840;47.980;7.830;2023-02-13T04:31:16;2.00;99.90
1686;DHT22;840;47.980;7.830;2023-02-13T04:33:42;2.00;99.90
1686;DHT22;840;47.980;7.830;2023-02-13T04:36:09;2.00;99.90
1686;DHT22;840;47.980;7.830;2023-02-13T04:38:36;2.00;99.90
1686;DHT22;840;47.980;7.830;2023-02-13T04:41:05;2.10;99.90
1686;DHT22;840;47.980;7.830;2023-02-13T04:43:32;2.10;99.90
1686;DHT22;840;47.980;7.830;2023-02-13T04:45:59;2.10;99.90
1686;DHT22;840;47.980;7.830;2023-02-13T04:48:26;2.10;99.90
1686;DHT22;840;47.980;7.830;2023-02-13T04:50:52;2.10;99.90
1686;DHT22;840;47.980;7.830;2023-02-13T04:53:20;2.00;99.90
1686;DHT22;840;47.980;7.830;2023-02-13T04:55:47;2.00;99.90
1686;DHT22;840;47.980;7.830;2023-02-13T04:58:15;2.00;99.90
1686;DHT22;840;47.980;7.830;2023-02-13T05:00:42;1.90;99.90
1686;DHT22;840;47.980;7.830;2023-02-13T05:03:11;1.90;99.90
1686;DHT22;840;47.980;7.830;2023-02-13T05:05:39;1.90;99.90
1686;DHT22;840;47.980;7.830;2023-02-13T05:08:07;1.90;99.90
1686;DHT22;840;47.980;7.830;2023-02-13T05:10:34;1.90;99.90
1686;DHT22;840;47.980;7.830;2023-02-13T05:13:01;1.90;99.90
1686;DHT22;840;47.980;7.830;2023-02-13T05:15:30;1.90;99.90
1686;DHT22;840;47.980;7.830;2023-02-13T05:17:57;1.90;99.90
1686;DHT22;840;47.980;7.830;2023-02-13T05:20:24;1.90;99.90
1686;DHT22;840;47.980;7.830;2023-02-13T05:22:53;1.90;99.90
1686;DHT22;840;47.980;7.830;2023-02-13T05:25:39;1.90;99.90
1686;DHT22;840;47.980;7.830;2023-02-13T05:28:06;1.90;99.90
1686;DHT22;840;47.980;7.830;2023-02-13T05:30:55;1.90;99.90
1686;DHT22;840;47.980;7.830;2023-02-13T05:33:21;1.90;99.90
1686;DHT22;840;47.980;7.830;2023-02-13T05:35:50;1.90;99.90
1686;DHT22;840;47.980;7.830;2023-02-13T05:38:17;1.90;99.90
1686;DHT22;840;47.980;7.830;2023-02-13T05:40:44;1.90;99.90
1686;DHT22;840;47.980;7.830;2023-02-13T05:43:11;1.90;99.90
1686;DHT22;840;47.980;7.830;2023-02-13T05:45:38;1.90;99.90
1686;DHT22;840;47.980;7.830;2023-02-13T05:48:06;1.90;99.90
1686;DHT22;840;47.980;7.830;2023-02-13T05:50:33;1.80;99.90
1686;DHT22;840;47.980;7.830;2023-02-13T05:53:00;1.80;99.90
1686;DHT22;840;47.980;7.830;2023-02-13T05:55:27;1.80;99.90
1686;DHT22;840;47.980;7.830;2023-02-13T05:57:55;1.80;99.90
1686;DHT22;840;47.980;7.830;2023-02-13T06:00:23;1.70;99.90
1686;DHT22;840;47.980;7.830;2023-02-13T06:02:50;1.70;99.90
1686;DHT22;840;47.980;7.830;2023-02-13T06:05:19;1.70;99.90
1686;DHT22;840;47.980;7.830;2023-02-13T06:07:45;1.70;99.90
1686;DHT22;840;47.980;7.830;2023-02-13T06:10:12;1.60;99.90
1686;DHT22;840;47.980;7.830;2023-02-13T06:12:39;1.50;99.90
1686;DHT22;840;47.980;7.830;2023-02-13T06:15:08;1.50;99.90
1686;DHT22;840;47.980;7.830;2023-02-13T06:17:35;1.50;99.90
1686;DHT22;840;47.980;7.830;2023-02-13T06:20:02;1.50;99.90
1686;DHT22;840;47.980;7.830;2023-02-13T06:22:31;1.50;99.90
1686;DHT22;840;47.980;7.830;2023-02-13T06:24:58;1.50;99.90
1686;DHT22;840;47.980;7.830;2023-02-13T06:27:25;1.50;99.90
1686;DHT22;840;47.980;7.830;2023-02-13T06:29:52;1.50;99.90
1686;DHT22;840;47.980;7.830;2023-02-13T06:32:18;1.50;99.90
1686;DHT22;840;47.980;7.830;2023-02-13T06:34:47;1.50;99.90
1686;DHT22;840;47.980;7.830;2023-02-13T06:37:14;1.50;99.90
1686;DHT22;840;47.980;7.830;2023-02-13T06:39:42;1.50;99.90
1686;DHT22;840;47.980;7.830;2023-02-13T06:42:09;1.50;99.90
1686;DHT22;840;47.980;7.830;2023-02-13T06:44:36;1.50;99.90
1686;DHT22;840;47.980;7.830;2023-02-13T06:47:03;1.50;99.90
1686;DHT22;840;47.980;7.830;2023-02-13T06:49:30;1.50;99.90
1686;DHT22;840;47.980;7.830;2023-02-13T06:51:57;1.50;99.90
1686;DHT22;840;47.980;7.830;2023-02-13T06:54:24;1.50;99.90
1686;DHT22;840;47.980;7.830;2023-02-13T06:56:53;1.50;99.90
1686;DHT22;840;47.980;7.830;2023-02-13T06:59:20;1.60;99.90
1686;DHT22;840;47.980;7.830;2023-02-13T07:01:47;1.60;99.90
1686;DHT22;840;47.980;7.830;2023-02-13T07:04:14;1.60;99.90
1686;DHT22;840;47.980;7.830;2023-02-13T07:06:40;1.60;99.90
1686;DHT22;840;47.980;7.830;2023-02-13T07:09:07;1.60;99.90
1686;DHT22;840;47.980;7.830;2023-02-13T07:11:38;1.60;99.90
1686;DHT22;840;47.980;7.830;2023-02-13T07:14:07;1.60;99.90
1686;DHT22;840;47.980;7.830;2023-02-13T07:16:34;1.60;99.90
1686;DHT22;840;47.980;7.830;2023-02-13T07:19:01;1.70;99.90
1686;DHT22;840;47.980;7.830;2023-02-13T07:21:28;1.70;99.90
1686;DHT22;840;47.980;7.830;2023-02-13T07:23:55;1.80;99.90
1686;DHT22;840;47.980;7.830;2023-02-13T07:26:25;1.90;99.90
1686;DHT22;840;47.980;7.830;2023-02-13T07:28:52;1.90;99.90
1686;DHT22;840;47.980;7.830;2023-02-13T07:31:20;2.00;99.90
1686;DHT22;840;47.980;7.830;2023-02-13T07:33:48;2.10;99.90
1686;DHT22;840;47.980;7.830;2023-02-13T07:36:15;2.20;99.90
1686;DHT22;840;47.980;7.830;2023-02-13T07:38:42;2.30;99.90
1686;DHT22;840;47.980;7.830;2023-02-13T07:41:12;2.30;99.90
1686;DHT22;840;47.980;7.830;2023-02-13T07:43:39;2.40;99.90
1686;DHT22;840;47.980;7.830;2023-02-13T07:46:06;2.50;99.90
1686;DHT22;840;47.980;7.830;2023-02-13T07:48:39;2.50;99.90
1686;DHT22;840;47.980;7.830;2023-02-13T07:51:06;2.60;99.90
1686;DHT22;840;47.980;7.830;2023-02-13T07:53:34;2.70;99.90
1686;DHT22;840;47.980;7.830;2023-02-13T07:56:06;2.80;99.90
1686;DHT22;840;47.980;7.830;2023-02-13T07:58:35;2.80;99.90
1686;DHT22;840;47.980;7.830;2023-02-13T08:01:06;2.90;99.90
1686;DHT22;840;47.980;7.830;2023-02-13T08:03:35;3.00;99.90
1686;DHT22;840;47.980;7.830;2023-02-13T08:06:03;3.00;99.90
1686;DHT22;840;47.980;7.830;2023-02-13T08:08:32;3.10;99.90
1686;DHT22;840;47.980;7.830;2023-02-13T08:11:04;3.20;99.90
1686;DHT22;840;47.980;7.830;2023-02-13T08:13:49;3.20;99.90
1686;DHT22;840;47.980;7.830;2023-02-13T08:16:17;3.20;99.90
1686;DHT22;840;47.980;7.830;2023-02-13T08:18:46;3.30;99.90
1686;DHT22;840;47.980;7.830;2023-02-13T08:21:14;3.40;99.90
1686;DHT22;840;47.980;7.830;2023-02-13T08:23:43;3.50;99.90
1686;DHT22;840;47.980;7.830;2023-02-13T08:26:12;3.50;99.90
1686;DHT22;840;47.980;7.830;2023-02-13T08:28:39;3.50;99.90
1686;DHT22;840;47.980;7.830;2023-02-13T08:31:09;3.60;99.90
1686;DHT22;840;47.980;7.830;2023-02-13T08:33:37;3.70;99.90
1686;DHT22;840;47.980;7.830;2023-02-13T08:36:08;3.80;99.90
1686;DHT22;840;47.980;7.830;2023-02-13T08:38:35;3.90;99.90
1686;DHT22;840;47.980;7.830;2023-02-13T08:41:03;4.00;99.90
1686;DHT22;840;47.980;7.830;2023-02-13T08:43:30;4.00;99.90
1686;DHT22;840;47.980;7.830;2023-02-13T08:45:57;4.20;99.90
1686;DHT22;840;47.980;7.830;2023-02-13T08:48:25;4.20;99.90
1686;DHT22;840;47.980;7.830;2023-02-13T08:50:52;4.30;99.90
1686;DHT22;840;47.980;7.830;2023-02-13T08:53:21;4.40;99.90
1686;DHT22;840;47.980;7.830;2023-02-13T08:55:53;4.40;99.90
1686;DHT22;840;47.980;7.830;2023-02-13T08:58:21;4.50;99.90
1686;DHT22;840;47.980;7.830;2023-02-13T09:00:48;4.60;99.90
1686;DHT22;840;47.980;7.830;2023-02-13T09:03:15;4.70;99.90
1686;DHT22;840;47.980;7.830;2023-02-13T09:05:42;4.70;99.90
1686;DHT22;840;47.980;7.830;2023-02-13T09:08:09;4.80;99.90
1686;DHT22;840;47.980;7.830;2023-02-13T09:10:40;4.90;99.90
1686;DHT22;840;47.980;7.830;2023-02-13T09:13:08;4.90;99.90
1686;DHT22;840;47.980;7.830;2023-02-13T09:15:37;4.90;99.90
1686;DHT22;840;47.980;7.830;2023-02-13T09:18:05;5.00;99.90
1686;DHT22;840;47.980;7.830;2023-02-13T09:20:32;5.10;99.90
1686;DHT22;840;47.980;7.830;2023-02-13T09:22:59;5.00;99.90
1686;DHT22;840;47.980;7.830;2023-02-13T09:25:26;5.10;99.90
1686;DHT22;840;47.980;7.830;2023-02-13T09:27:55;5.00;99.90
1686;DHT22;840;47.980;7.830;2023-02-13T09:30:22;5.00;99.90
1686;DHT22;840;47.980;7.830;2023-02-13T09:32:49;5.00;99.90
1686;DHT22;840;47.980;7.830;2023-02-13T09:35:16;5.00;99.90
1686;DHT22;840;47.980;7.830;2023-02-13T09:37:43;5.00;99.90
1686;DHT22;840;47.980;7.830;2023-02-13T09:40:20;5.00;99.90
1686;DHT22;840;47.980;7.830;2023-02-13T09:42:49;5.10;99.90
1686;DHT22;840;47.980;7.830;2023-02-13T09:45:19;5.10;99.90
1686;DHT22;840;47.980;7.830;2023-02-13T09:47:47;5.20;99.90
1686;DHT22;840;47.980;7.830;2023-02-13T09:50:18;5.20;99.90
1686;DHT22;840;47.980;7.830;2023-02-13T09:52:51;5.30;99.90
1686;DHT22;840;47.980;7.830;2023-02-13T09:55:24;5.30;99.90
1686;DHT22;840;47.980;7.830;2023-02-13T09:57:57;5.40;99.90
1686;DHT22;840;47.980;7.830;2023-02-13T10:00:31;5.40;99.90
1686;DHT22;840;47.980;7.830;2023-02-13T10:03:20;5.40;99.90
1686;DHT22;840;47.980;7.830;2023-02-13T10:05:55;5.50;99.90
1686;DHT22;840;47.980;7.830;2023-02-13T10:08:33;5.60;99.90
1686;DHT22;840;47.980;7.830;2023-02-13T10:11:11;5.60;99.90
1686;DHT22;840;47.980;7.830;2023-02-13T10:14:01;5.70;99.90
1686;DHT22;840;47.980;7.830;2023-02-13T10:16:36;5.70;99.90
1686;DHT22;840;47.980;7.830;2023-02-13T10:19:17;5.70;99.90
1686;DHT22;840;47.980;7.830;2023-02-13T10:21:48;5.80;99.90
1686;DHT22;840;47.980;7.830;2023-02-13T10:24:25;5.90;99.90
1686;DHT22;840;47.980;7.830;2023-02-13T10:26:55;5.90;99.90
1686;DHT22;840;47.980;7.830;2023-02-13T10:29:28;5.90;99.90
1686;DHT22;840;47.980;7.830;2023-02-13T10:32:21;6.00;99.90
1686;DHT22;840;47.980;7.830;2023-02-13T10:34:52;6.00;99.90
1686;DHT22;840;47.980;7.830;2023-02-13T10:37:21;6.10;99.90
1686;DHT22;840;47.980;7.830;2023-02-13T10:39:49;6.10;99.90
1686;DHT22;840;47.980;7.830;2023-02-13T10:42:21;6.10;99.90
1686;DHT22;840;47.980;7.830;2023-02-13T10:45:14;6.10;99.90
1686;DHT22;840;47.980;7.830;2023-02-13T10:47:56;6.10;99.90
1686;DHT22;840;47.980;7.830;2023-02-13T10:50:29;6.20;99.90
1686;DHT22;840;47.980;7.830;2023-02-13T10:53:07;6.20;99.90
1686;DHT22;840;47.980;7.830;2023-02-13T10:55:59;6.30;99.90
1686;DHT22;840;47.980;7.830;2023-02-13T10:58:37;6.40;99.90
1686;DHT22;840;47.980;7.830;2023-02-13T11:01:08;6.40;99.90
1686;DHT22;840;47.980;7.830;2023-02-13T11:03:41;6.50;99.90
1686;DHT22;840;47.980;7.830;2023-02-13T11:06:14;6.50;99.90
1686;DHT22;840;47.980;7.830;2023-02-13T11:08:47;6.50;99.90
1686;DHT22;840;47.980;7.830;2023-02-13T11:11:31;6.60;99.90
1686;DHT22;840;47.980;7.830;2023-02-13T11:14:08;6.60;99.90
1686;DHT22;840;47.980;7.830;2023-02-13T11:16:48;6.70;99.90
1686;DHT22;840;47.980;7.830;2023-02-13T11:19:24;6.70;99.90
1686;DHT22;840;47.980;7.830;2023-02-13T11:21:58;6.80;99.90
1686;DHT22;840;47.980;7.830;2023-02-13T11:24:26;6.80;99.90
1686;DHT22;840;47.980;7.830;2023-02-13T11:27:01;6.80;99.90
1686;DHT22;840;47.980;7.830;2023-02-13T11:29:50;6.90;99.90
1686;DHT22;840;47.980;7.830;2023-02-13T11:32:20;7.00;99.90
1686;DHT22;840;47.980;7.830;2023-02-13T11:34:49;7.00;99.90
1686;DHT22;840;47.980;7.830;2023-02-13T11:37:19;7.10;99.90
1686;DHT22;840;47.980;7.830;2023-02-13T11:39:48;7.20;99.90
1686;DHT22;840;47.980;7.830;2023-02-13T11:42:18;7.20;99.90
1686;DHT22;840;47.980;7.830;2023-02-13T11:44:50;7.20;99.90
1686;DHT22;840;47.980;7.830;2023-02-13T11:47:39;7.30;99.90
1686;DHT22;840;47.980;7.830;2023-02-13T11:50:20;7.30;99.90
1686;DHT22;840;47.980;7.830;2023-02-13T11:53:06;7.30;99.90
1686;DHT22;840;47.980;7.830;2023-02-13T11:55:36;7.30;99.90
1686;DHT22;840;47.980;7.830;2023-02-13T11:58:22;7.40;99.90
1686;DHT22;840;47.980;7.830;2023-02-13T12:01:10;7.40;99.90
1686;DHT22;840;47.980;7.830;2023-02-13T12:03:59;7.40;99.90
1686;DHT22;840;47.980;7.830;2023-02-13T12:06:28;7.50;99.90
1686;DHT22;840;47.980;7.830;2023-02-13T12:08:56;7.50;99.90
1686;DHT22;840;47.980;7.830;2023-02-13T12:11:32;7.50;99.90
1686;DHT22;840;47.980;7.830;2023-02-13T12:14:01;7.60;99.90
1686;DHT22;840;47.980;7.830;2023-02-13T12:16:30;7.60;99.90
1686;DHT22;840;47.980;7.830;2023-02-13T12:19:02;7.60;99.90
1686;DHT22;840;47.980;7.830;2023-02-13T12:21:45;7.70;99.90
1686;DHT22;840;47.980;7.830;2023-02-13T12:24:26;7.70;99.90
1686;DHT22;840;47.980;7.830;2023-02-13T12:27:00;7.80;99.90
1686;DHT22;840;47.980;7.830;2023-02-13T12:29:53;7.80;99.90
1686;DHT22;840;47.980;7.830;2023-02-13T12:32:29;7.90;99.90
1686;DHT22;840;47.980;7.830;2023-02-13T12:35:28;7.90;99.90
1686;DHT22;840;47.980;7.830;2023-02-13T12:38:03;7.90;99.90
1686;DHT22;840;47.980;7.830;2023-02-13T12:40:54;8.00;99.90
1686;DHT22;840;47.980;7.830;2023-02-13T12:46:28;8.10;99.90
1686;DHT22;840;47.980;7.830;2023-02-13T12:49:02;8.10;99.90
1686;DHT22;840;47.980;7.830;2023-02-13T12:51:41;8.10;99.90
1686;DHT22;840;47.980;7.830;2023-02-13T12:54:37;8.20;99.90
1686;DHT22;840;47.980;7.830;2023-02-13T13:00:13;8.30;99.90
1686;DHT22;840;47.980;7.830;2023-02-13T13:02:57;8.30;99.90
1686;DHT22;840;47.980;7.830;2023-02-13T13:05:39;8.30;99.90
1686;DHT22;840;47.980;7.830;2023-02-13T13:08:35;8.40;99.90
1686;DHT22;840;47.980;7.830;2023-02-13T13:11:22;8.50;99.90
1686;DHT22;840;47.980;7.830;2023-02-13T13:13:59;8.60;99.90
1686;DHT22;840;47.980;7.830;2023-02-13T13:16:45;8.70;99.90
1686;DHT22;840;47.980;7.830;2023-02-13T13:19:30;8.70;99.90
1686;DHT22;840;47.980;7.830;2023-02-13T13:22:02;8.70;99.90
1686;DHT22;840;47.980;7.830;2023-02-13T13:24:40;8.70;99.90
1686;DHT22;840;47.980;7.830;2023-02-13T13:27:17;8.80;99.90
1686;DHT22;840;47.980;7.830;2023-02-13T13:30:03;8.90;99.90
1686;DHT22;840;47.980;7.830;2023-02-13T13:32:33;9.00;99.90
1686;DHT22;840;47.980;7.830;2023-02-13T13:35:01;9.00;99.90
1686;DHT22;840;47.980;7.830;2023-02-13T13:37:32;9.10;99.90
1686;DHT22;840;47.980;7.830;2023-02-13T13:40:13;9.10;99.90
1686;DHT22;840;47.980;7.830;2023-02-13T13:42:52;9.10;99.90
1686;DHT22;840;47.980;7.830;2023-02-13T13:45:29;9.20;99.90
1686;DHT22;840;47.980;7.830;2023-02-13T13:48:15;9.20;99.90
1686;DHT22;840;47.980;7.830;2023-02-13T13:50:44;9.20;99.90
1686;DHT22;840;47.980;7.830;2023-02-13T13:53:18;9.30;99.90
1686;DHT22;840;47.980;7.830;2023-02-13T13:56:11;9.40;99.90
1686;DHT22;840;47.980;7.830;2023-02-13T13:58:48;9.50;99.90
1686;DHT22;840;47.980;7.830;2023-02-13T14:01:23;9.60;99.90
1686;DHT22;840;47.980;7.830;2023-02-13T14:03:52;9.60;99.90
1686;DHT22;840;47.980;7.830;2023-02-13T14:06:21;9.70;99.90
1686;DHT22;840;47.980;7.830;2023-02-13T14:09:00;9.80;99.90
1686;DHT22;840;47.980;7.830;2023-02-13T14:11:41;10.00;99.90
1686;DHT22;840;47.980;7.830;2023-02-13T14:17:48;10.00;99.90
1686;DHT22;840;47.980;7.830;2023-02-13T14:20:21;10.00;99.90
1686;DHT22;840;47.980;7.830;2023-02-13T14:23:02;10.10;99.90
1686;DHT22;840;47.980;7.830;2023-02-13T14:25:34;10.10;99.90
1686;DHT22;840;47.980;7.830;2023-02-13T14:28:03;10.00;99.90
1686;DHT22;840;47.980;7.830;2023-02-13T14:30:33;10.10;99.90
1686;DHT22;840;47.980;7.830;2023-02-13T14:33:04;10.20;99.90
1686;DHT22;840;47.980;7.830;2023-02-13T14:35:33;10.30;99.90
1686;DHT22;840;47.980;7.830;2023-02-13T14:38:03;10.40;99.90
1686;DHT22;840;47.980;7.830;2023-02-13T14:40:45;10.60;99.90
1686;DHT22;840;47.980;7.830;2023-02-13T14:43:28;10.60;99.90
1686;DHT22;840;47.980;7.830;2023-02-13T14:45:57;10.70;99.90
1686;DHT22;840;47.980;7.830;2023-02-13T14:48:38;10.90;99.90
1686;DHT22;840;47.980;7.830;2023-02-13T14:51:14;11.00;99.90
1686;DHT22;840;47.980;7.830;2023-02-13T14:53:48;11.00;99.90
1686;DHT22;840;47.980;7.830;2023-02-13T14:56:18;10.90;99.90
1686;DHT22;840;47.980;7.830;2023-02-13T14:58:50;10.80;99.90
1686;DHT22;840;47.980;7.830;2023-02-13T15:01:27;10.90;99.90
1686;DHT22;840;47.980;7.830;2023-02-13T15:04:06;11.00;99.90
1686;DHT22;840;47.980;7.830;2023-02-13T15:06:38;11.00;99.90
1686;DHT22;840;47.980;7.830;2023-02-13T15:09:26;11.20;99.90
1686;DHT22;840;47.980;7.830;2023-02-13T15:11:54;11.40;99.90
1686;DHT22;840;47.980;7.830;2023-02-13T15:14:31;11.50;99.90
1686;DHT22;840;47.980;7.830;2023-02-13T15:17:04;11.40;99.90
1686;DHT22;840;47.980;7.830;2023-02-13T15:19:36;11.30;99.90
1686;DHT22;840;47.980;7.830;2023-02-13T15:22:05;11.30;99.90
1686;DHT22;840;47.980;7.830;2023-02-13T15:24:37;11.20;99.90
1686;DHT22;840;47.980;7.830;2023-02-13T15:27:16;11.10;99.90
1686;DHT22;840;47.980;7.830;2023-02-13T15:29:54;11.00;99.90
1686;DHT22;840;47.980;7.830;2023-02-13T15:32:27;11.00;99.90
1686;DHT22;840;47.980;7.830;2023-02-13T15:34:56;11.00;99.90
1686;DHT22;840;47.980;7.830;2023-02-13T15:37:26;11.00;99.90
1686;DHT22;840;47.980;7.830;2023-02-13T15:40:15;10.80;99.90
1686;DHT22;840;47.980;7.830;2023-02-13T15:42:42;10.70;99.90
1686;DHT22;840;47.980;7.830;2023-02-13T15:45:16;10.70;99.90
1686;DHT22;840;47.980;7.830;2023-02-13T15:47:44;10.50;99.90
1686;DHT22;840;47.980;7.830;2023-02-13T15:50:34;10.30;99.90
1686;DHT22;840;47.980;7.830;2023-02-13T15:53:04;10.20;99.90
1686;DHT22;840;47.980;7.830;2023-02-13T15:55:38;10.10;99.90
1686;DHT22;840;47.980;7.830;2023-02-13T15:58:08;10.00;99.90
1686;DHT22;840;47.980;7.830;2023-02-13T16:00:52;9.90;99.90
1686;DHT22;840;47.980;7.830;2023-02-13T16:03:36;9.70;99.90
1686;DHT22;840;47.980;7.830;2023-02-13T16:06:06;9.50;99.90
1686;DHT22;840;47.980;7.830;2023-02-13T16:08:43;9.30;99.90
1686;DHT22;840;47.980;7.830;2023-02-13T16:11:33;9.20;99.90
1686;DHT22;840;47.980;7.830;2023-02-13T16:14:14;9.00;99.90
1686;DHT22;840;47.980;7.830;2023-02-13T16:16:46;9.00;99.90
1686;DHT22;840;47.980;7.830;2023-02-13T16:19:34;8.90;99.90
1686;DHT22;840;47.980;7.830;2023-02-13T16:22:13;8.90;99.90
1686;DHT22;840;47.980;7.830;2023-02-13T16:24:46;8.80;99.90
1686;DHT22;840;47.980;7.830;2023-02-13T16:27:15;8.70;99.90
1686;DHT22;840;47.980;7.830;2023-02-13T16:29:49;8.60;99.90
1686;DHT22;840;47.980;7.830;2023-02-13T16:32:25;8.50;99.90
1686;DHT22;840;47.980;7.830;2023-02-13T16:34:53;8.50;99.90
1686;DHT22;840;47.980;7.830;2023-02-13T16:37:30;8.40;99.90
1686;DHT22;840;47.980;7.830;2023-02-13T16:40:20;8.30;99.90
1686;DHT22;840;47.980;7.830;2023-02-13T16:42:47;8.20;99.90
1686;DHT22;840;47.980;7.830;2023-02-13T16:45:20;8.10;99.90
1686;DHT22;840;47.980;7.830;2023-02-13T16:47:58;8.10;99.90
1686;DHT22;840;47.980;7.830;2023-02-13T16:50:27;7.90;99.90
1686;DHT22;840;47.980;7.830;2023-02-13T16:53:00;7.80;99.90
1686;DHT22;840;47.980;7.830;2023-02-13T16:55:28;7.80;99.90
1686;DHT22;840;47.980;7.830;2023-02-13T16:58:01;7.70;99.90
1686;DHT22;840;47.980;7.830;2023-02-13T17:00:32;7.60;99.90
1686;DHT22;840;47.980;7.830;2023-02-13T17:02:58;7.50;99.90
1686;DHT22;840;47.980;7.830;2023-02-13T17:05:26;7.50;99.90
1686;DHT22;840;47.980;7.830;2023-02-13T17:08:24;7.50;99.90
1686;DHT22;840;47.980;7.830;2023-02-13T17:14:20;7.30;99.90
1686;DHT22;840;47.980;7.830;2023-02-13T17:16:47;7.30;99.90
1686;DHT22;840;47.980;7.830;2023-02-13T17:19:15;7.20;99.90
1686;DHT22;840;47.980;7.830;2023-02-13T17:21:54;7.20;99.90
1686;DHT22;840;47.980;7.830;2023-02-13T17:24:22;7.20;99.90
1686;DHT22;840;47.980;7.830;2023-02-13T17:26:49;7.20;99.90